Annaba, Algeria

6:41 PM CET on September 01, 2015 (GMT +0100)
Rabah Bitat | | Change Station
CLOSE
Current Station
Airport
Location: Annaba,
Elevation: 13 ft
Nearby Weather Stations

Elev 13 ft 36.82 °N, 7.81 °E | Updated 11 minutes ago

Scattered Clouds
Scattered Clouds
82 °F
Feels Like 92 °F
N
15
Wind Variable Wind from NE

Today
High -- | Low -- °F
--% Chance of Precip.
Yesterday
High -- | Low -- °F
Precip. -- in
5:59 AM 6:57 PM
Waning Gibbous, 87% visible
Pressure 29.92 in
Visibility 6.2 miles
Clouds Few 2300 ft
Scattered Clouds 10000 ft
Heat Index 92 °F
Dew Point 79 °F
Humidity 89%
Rainfall 0.00 in
Snow Depth Not available.
UV 0 out of 12
Pollen Not available.
Air Quality Not available.
Flu Activity Not available.
METAR DABB 011730Z 05013KT 9999 FEW023 SCT100 28/26 Q1013
Pressure 29.92 in
Visibility 6.2 miles
Clouds Few 2300 ft
Scattered Clouds 10000 ft
Heat Index 92 °F
Dew Point 79 °F
Humidity 89%
Rainfall 0.00 in
Snow Depth Not available.
UV 0 out of 12
Pollen Not available.
Air Quality Not available.
Flu Activity Not available.
METAR DABB 011730Z 05013KT 9999 FEW023 SCT100 28/26 Q1013

10-Day Weather Forecast

×

Almanac

Astronomy

Sep. 01, 2015 Rise Set
Actual Time
Civil Twilight
Nautical Twilight
Astronomical Twilight
Moon
Length of Visible Light
Length of Day
Tomorrow will be .
, % of the Moon is Illuminated

Today's Extremes

Country Highs Country Lows

Community

WunderPhotos

Upload Photos

1,851,569 photos uploaded!

WunderBlogs® & News

Nearby

Air Quality

  Air Quality AQ Index Pollutant
Not available.

Snow Depth

Station Depth Elevation

Earthquake Activity

City Distance Mag. Time & Date
Minimum magnitude displayed is 2.5.

Coastal Water Temperatures

Place Temperature

Stations

Nearby Weather Stations

Station Location Temp. Windchill Dew Point Humidity Wind Precip. Elev Updated Type